Time;durP1;ratioP1;P1;durP2;ratioP2;P2;SDS_P1;SDS_P2;PMS_P1;PMS_P2;Temp;Humidity;BMP_temperature;BMP_pressure;BME280_temperature;BME280_humidity;BME280_pressure;Samples;Min_cycle;Max_cycle;Signal;HPM_P1;HPM_P2
2021/07/11 00:01:03;;;;;;;;;;;;;;;;;;5033801;28;20379;-68
2021/07/11 00:03:28;;;;;;;;;;;;;;;;;;5033956;28;19914;-68
2021/07/11 00:05:53;;;;;;;;;;;;;;;;;;5034137;28;20383;-66
2021/07/11 00:08:18;;;;;;;;;;;;;;;;;;5033676;28;19967;-68
2021/07/11 00:10:44;;;;;;;;;;;;;;;;;;5033475;28;20299;-68
2021/07/11 00:13:09;;;;;;;;;;;;;;;;;;5031914;28;19974;-69
2021/07/11 00:15:34;;;;;;;;;;;;;;;;;;5033024;28;19974;-69
2021/07/11 00:18:01;;;;;;;;;;;;;;;;;;5041383;28;20287;-68
2021/07/11 00:20:27;;;;;;;;;;;;;;;;;;5035914;28;19913;-66
2021/07/11 00:22:52;;;;;;;;;;;;;;;;;;5033025;28;19920;-65
2021/07/11 00:25:17;;;;;;;;;;;;;;;;;;5034027;28;19920;-66
2021/07/11 00:27:44;;;;;;;;;;;;;;;;;;5033236;28;19928;-67
2021/07/11 00:30:09;;;;;;;;;;;;;;;;;;5030654;28;20011;-66
2021/07/11 00:32:35;;;;;;;;;;;;;;;;;;5046914;28;20007;-66
2021/07/11 00:35:00;;;;;;;;;;;;;;;;;;5035073;28;19921;-66
2021/07/11 00:37:25;;;;;;;;;;;;;;;;;;5036563;28;19917;-66
2021/07/11 00:39:50;;;;;;;;;;;;;;;;;;5034917;28;20263;-66
2021/07/11 00:42:16;;;;;;;;;;;;;;;;;;5032878;28;20114;-67
2021/07/11 00:44:41;;;;;;;;;;;;;;;;;;5033255;28;19913;-66
2021/07/11 00:47:06;;;;;;;;;;;;;;;;;;5033378;28;19913;-66
2021/07/11 00:49:32;;;;;;;;;;;;;;;;;;5032512;28;20398;-66
2021/07/11 00:51:57;;;;;;;;;;;;;;;;;;5033179;28;20359;-67
2021/07/11 00:54:22;;;;;;;;;;;;;;;;;;5032878;28;20452;-66
2021/07/11 00:56:48;;;;;;;;;;;;;;;;;;5033138;28;19920;-66
2021/07/11 00:59:13;;;;;;;;;;;;;;;;;;5032936;28;19996;-66
2021/07/11 01:01:42;;;;;;;;;;;;;;;;;;5032817;28;20330;-66
2021/07/11 01:04:12;;;;;;;;;;;;;;;;;;5032885;28;19917;-66
2021/07/11 01:06:39;;;;;;;;;;;;;;;;;;5029817;28;19914;-66
2021/07/11 01:09:13;;;;;;;;;;;;;;;;;;5032694;28;19972;-66
2021/07/11 01:11:43;;;;;;;;;;;;;;;;;;5032437;28;19919;-66
2021/07/11 01:14:10;;;;;;;;;;;;;;;;;;5032525;28;19917;-66
2021/07/11 01:16:36;;;;;;;;;;;;;;;;;;5032747;28;20395;-66
2021/07/11 01:19:07;;;;;;;;;;;;;;;;;;5032538;28;19924;-66
2021/07/11 01:21:35;;;;;;;;;;;;;;;;;;5031104;28;19913;-66
2021/07/11 01:24:05;;;;;;;;;;;;;;;;;;5032571;28;20385;-66
2021/07/11 01:26:31;;;;;;;;;;;;;;;;;;5032507;28;20348;-66
2021/07/11 01:28:57;;;;;;;;;;;;;;;;;;5032234;28;19949;-66
2021/07/11 01:31:23;;;;;;;;;;;;;;;;;;5031057;28;19913;-66
2021/07/11 01:33:48;;;;;;;;;;;;;;;;;;5032062;28;19917;-66
2021/07/11 01:36:16;;;;;;;;;;;;;;;;;;5032155;28;20379;-67
2021/07/11 01:38:42;;;;;;;;;;;;;;;;;;5032225;28;19913;-66
2021/07/11 01:41:08;;;;;;;;;;;;;;;;;;5032232;28;20349;-66
2021/07/11 01:43:34;;;;;;;;;;;;;;;;;;5032357;28;19936;-66
2021/07/11 01:46:00;;;;;;;;;;;;;;;;;;5047294;28;20275;-66
2021/07/11 01:48:25;;;;;;;;;;;;;;;;;;5031739;28;20067;-66
2021/07/11 01:50:52;;;;;;;;;;;;;;;;;;5031894;28;19999;-66
2021/07/11 01:53:21;;;;;;;;;;;;;;;;;;5031808;28;19921;-66
2021/07/11 01:55:47;;;;;;;;;;;;;;;;;;5031757;28;19917;-66
2021/07/11 01:58:12;;;;;;;;;;;;;;;;;;5032180;28;20386;-66
2021/07/11 02:00:37;;;;;;;;;;;;;;;;;;5032111;28;19917;-66
2021/07/11 02:03:13;;;;;;;;;;;;;;;;;;5046967;28;19913;-67
2021/07/11 02:05:38;;;;;;;;;;;;;;;;;;5031832;28;19913;-66
2021/07/11 02:08:03;;;;;;;;;;;;;;;;;;5031580;28;20413;-65
2021/07/11 02:10:29;;;;;;;;;;;;;;;;;;5031757;28;19913;-66
2021/07/11 02:12:56;;;;;;;;;;;;;;;;;;5031510;28;19927;-66
2021/07/11 02:15:23;;;;;;;;;;;;;;;;;;5031656;28;19956;-66
2021/07/11 02:17:50;;;;;;;;;;;;;;;;;;5031315;28;19913;-67
2021/07/11 02:20:15;;;;;;;;;;;;;;;;;;5031600;28;19971;-66
2021/07/11 02:22:42;;;;;;;;;;;;;;;;;;5031744;28;20366;-66
2021/07/11 02:25:08;;;;;;;;;;;;;;;;;;5031552;28;19936;-67
2021/07/11 02:27:34;;;;;;;;;;;;;;;;;;5017575;28;19913;-66
2021/07/11 02:30:06;;;;;;;;;;;;;;;;;;5026398;28;19921;-67
2021/07/11 02:32:31;;;;;;;;;;;;;;;;;;5031176;28;19920;-67
2021/07/11 02:34:57;;;;;;;;;;;;;;;;;;5031458;28;19917;-66
2021/07/11 02:37:23;;;;;;;;;;;;;;;;;;5031180;28;19914;-64
2021/07/11 02:39:50;;;;;;;;;;;;;;;;;;5031288;28;19914;-66
2021/07/11 02:42:17;;;;;;;;;;;;;;;;;;5031002;28;19921;-66
2021/07/11 02:44:44;;;;;;;;;;;;;;;;;;5029204;28;19936;-66
2021/07/11 02:47:11;;;;;;;;;;;;;;;;;;5030128;28;20307;-67
2021/07/11 02:49:36;;;;;;;;;;;;;;;;;;5031048;28;19917;-66
2021/07/11 02:52:04;;;;;;;;;;;;;;;;;;5030981;28;20008;-66
2021/07/11 02:54:32;;;;;;;;;;;;;;;;;;5046535;28;19921;-67
2021/07/11 02:57:00;;;;;;;;;;;;;;;;;;5031186;28;19913;-67
2021/07/11 02:59:25;;;;;;;;;;;;;;;;;;5030649;28;19924;-66
2021/07/11 03:01:51;;;;;;;;;;;;;;;;;;5030920;28;20012;-66
2021/07/11 03:04:19;;;;;;;;;;;;;;;;;;5029668;28;19995;-66
2021/07/11 03:06:44;;;;;;;;;;;;;;;;;;5030119;28;20352;-66
2021/07/11 03:09:09;;;;;;;;;;;;;;;;;;5030670;28;19999;-66
2021/07/11 03:11:38;;;;;;;;;;;;;;;;;;5031777;28;19963;-66
2021/07/11 03:14:05;;;;;;;;;;;;;;;;;;5034969;28;20130;-66
2021/07/11 03:16:31;;;;;;;;;;;;;;;;;;5035038;28;19920;-66
2021/07/11 03:18:57;;;;;;;;;;;;;;;;;;5034934;28;19913;-66
2021/07/11 03:21:23;;;;;;;;;;;;;;;;;;5034944;28;19913;-67
2021/07/11 03:23:50;;;;;;;;;;;;;;;;;;5034716;28;19917;-65
2021/07/11 03:26:15;;;;;;;;;;;;;;;;;;5034639;28;19913;-65
2021/07/11 03:28:44;;;;;;;;;;;;;;;;;;5034446;28;19920;-65
2021/07/11 03:31:10;;;;;;;;;;;;;;;;;;5034686;28;19924;-65
2021/07/11 03:33:40;;;;;;;;;;;;;;;;;;5034436;28;19979;-65
2021/07/11 03:36:06;;;;;;;;;;;;;;;;;;5035223;28;20288;-65
2021/07/11 03:38:36;;;;;;;;;;;;;;;;;;5035093;28;19914;-65
2021/07/11 03:41:02;;;;;;;;;;;;;;;;;;5037466;28;20291;-66
2021/07/11 03:43:32;;;;;;;;;;;;;;;;;;5037282;28;19921;-65
2021/07/11 03:45:58;;;;;;;;;;;;;;;;;;5034479;28;19978;-65
2021/07/11 03:48:42;;;;;;;;;;;;;;;;;;5034352;28;19959;-66
2021/07/11 03:51:08;;;;;;;;;;;;;;;;;;5034069;28;20017;-66
2021/07/11 03:53:34;;;;;;;;;;;;;;;;;;5033905;28;19955;-66
2021/07/11 03:56:00;;;;;;;;;;;;;;;;;;5034216;28;19935;-66
2021/07/11 03:58:27;;;;;;;;;;;;;;;;;;5034011;28;19924;-66
2021/07/11 04:00:54;;;;;;;;;;;;;;;;;;5034223;28;20343;-65
2021/07/11 04:03:20;;;;;;;;;;;;;;;;;;5034165;28;19964;-65
2021/07/11 04:05:45;;;;;;;;;;;;;;;;;;5034016;28;19917;-65
2021/07/11 04:08:12;;;;;;;;;;;;;;;;;;5033896;28;19923;-65
2021/07/11 04:10:39;;;;;;;;;;;;;;;;;;5033933;28;19913;-66
2021/07/11 04:13:04;;;;;;;;;;;;;;;;;;5033598;28;19917;-65
2021/07/11 04:15:31;;;;;;;;;;;;;;;;;;5034056;28;19919;-65
2021/07/11 04:17:58;;;;;;;;;;;;;;;;;;5033693;28;19914;-65
2021/07/11 04:20:24;;;;;;;;;;;;;;;;;;5033680;28;19913;-66
2021/07/11 04:22:49;;;;;;;;;;;;;;;;;;5032286;28;20343;-65
2021/07/11 04:25:15;;;;;;;;;;;;;;;;;;5029954;28;20053;-65
2021/07/11 04:27:41;;;;;;;;;;;;;;;;;;5013661;28;20313;-65
2021/07/11 04:30:07;;;;;;;;;;;;;;;;;;5029554;28;19917;-65
2021/07/11 04:32:36;;;;;;;;;;;;;;;;;;5033244;28;19941;-66
2021/07/11 04:35:01;;;;;;;;;;;;;;;;;;5033316;28;19963;-65
2021/07/11 04:37:26;;;;;;;;;;;;;;;;;;5048480;28;19952;-65
2021/07/11 04:39:51;;;;;;;;;;;;;;;;;;5033446;28;20331;-66
2021/07/11 04:42:17;;;;;;;;;;;;;;;;;;5033121;28;19921;-66
2021/07/11 04:44:45;;;;;;;;;;;;;;;;;;5033241;28;19920;-65
2021/07/11 04:47:11;;;;;;;;;;;;;;;;;;5033615;28;20004;-66
2021/07/11 04:49:37;;;;;;;;;;;;;;;;;;5033225;28;19913;-65
2021/07/11 04:52:02;;;;;;;;;;;;;;;;;;5048309;28;19929;-67
2021/07/11 04:54:28;;;;;;;;;;;;;;;;;;5033220;28;19923;-65
2021/07/11 04:56:53;;;;;;;;;;;;;;;;;;5033424;28;19920;-65
2021/07/11 04:59:18;;;;;;;;;;;;;;;;;;5032881;28;20299;-65
2021/07/11 05:01:43;;;;;;;;;;;;;;;;;;5032834;28;19967;-65
2021/07/11 05:04:09;;;;;;;;;;;;;;;;;;5032921;28;19963;-65
2021/07/11 05:06:34;;;;;;;;;;;;;;;;;;5029508;28;19913;-65
2021/07/11 05:08:59;;;;;;;;;;;;;;;;;;5032763;28;19913;-65
2021/07/11 05:11:25;;;;;;;;;;;;;;;;;;5032857;28;19916;-65
2021/07/11 05:13:50;;;;;;;;;;;;;;;;;;5032886;28;20399;-65
2021/07/11 05:16:15;;;;;;;;;;;;;;;;;;5032465;28;19924;-65
2021/07/11 05:18:40;;;;;;;;;;;;;;;;;;5032448;28;19913;-66
2021/07/11 05:21:06;;;;;;;;;;;;;;;;;;5030946;28;20324;-65
2021/07/11 05:23:31;;;;;;;;;;;;;;;;;;5032384;28;19913;-65
2021/07/11 05:25:56;;;;;;;;;;;;;;;;;;5032383;28;19913;-65
2021/07/11 05:28:21;;;;;;;;;;;;;;;;;;5032202;28;19975;-65
2021/07/11 05:30:47;;;;;;;;;;;;;;;;;;5032340;28;19953;-66
2021/07/11 05:33:12;;;;;;;;;;;;;;;;;;5032219;28;19918;-65
2021/07/11 05:35:37;;;;;;;;;;;;;;;;;;5047232;28;19920;-65
2021/07/11 05:38:02;;;;;;;;;;;;;;;;;;5031926;28;19920;-65
2021/07/11 05:40:28;;;;;;;;;;;;;;;;;;5032303;28;20011;-65
2021/07/11 05:42:53;;;;;;;;;;;;;;;;;;5032209;28;19924;-65
2021/07/11 05:45:18;;;;;;;;;;;;;;;;;;5032259;28;20150;-66
2021/07/11 05:47:43;;;;;;;;;;;;;;;;;;5031818;28;19935;-66
2021/07/11 05:50:09;;;;;;;;;;;;;;;;;;5031945;28;19920;-65
2021/07/11 05:52:34;;;;;;;;;;;;;;;;;;5031893;28;19913;-66
2021/07/11 05:55:01;;;;;;;;;;;;;;;;;;5032193;28;19925;-66
2021/07/11 05:57:27;;;;;;;;;;;;;;;;;;5031832;28;19924;-66
2021/07/11 05:59:54;;;;;;;;;;;;;;;;;;5031845;28;19995;-65
2021/07/11 06:02:19;;;;;;;;;;;;;;;;;;5031731;28;19912;-65
2021/07/11 06:04:44;;;;;;;;;;;;;;;;;;5046928;28;20297;-66
2021/07/11 06:07:09;;;;;;;;;;;;;;;;;;5031796;28;19913;-65
2021/07/11 06:09:34;;;;;;;;;;;;;;;;;;5031416;28;19944;-66
2021/07/11 06:12:00;;;;;;;;;;;;;;;;;;5031386;28;20330;-66
2021/07/11 06:14:25;;;;;;;;;;;;;;;;;;5031814;28;19921;-65
2021/07/11 06:16:50;;;;;;;;;;;;;;;;;;5028559;28;20004;-65
2021/07/11 06:19:16;;;;;;;;;;;;;;;;;;5031079;28;19917;-66
2021/07/11 06:21:41;;;;;;;;;;;;;;;;;;5031376;28;19956;-64
2021/07/11 06:24:07;;;;;;;;;;;;;;;;;;5031875;28;20367;-65
2021/07/11 06:26:32;;;;;;;;;;;;;;;;;;5031498;28;19982;-66
2021/07/11 06:28:57;;;;;;;;;;;;;;;;;;5031314;28;19920;-65
2021/07/11 06:31:23;;;;;;;;;;;;;;;;;;5031549;28;19944;-65
2021/07/11 06:33:48;;;;;;;;;;;;;;;;;;5031384;28;19956;-67
2021/07/11 06:36:13;;;;;;;;;;;;;;;;;;5031448;28;19913;-65
2021/07/11 06:38:38;;;;;;;;;;;;;;;;;;5031212;28;20003;-65
2021/07/11 06:41:04;;;;;;;;;;;;;;;;;;5031215;28;20005;-65
2021/07/11 06:43:29;;;;;;;;;;;;;;;;;;5032629;28;19920;-65
2021/07/11 06:45:54;;;;;;;;;;;;;;;;;;5034350;28;19996;-65
2021/07/11 06:48:19;;;;;;;;;;;;;;;;;;5032998;28;20194;-65
2021/07/11 06:50:45;;;;;;;;;;;;;;;;;;5030811;28;20387;-67
2021/07/11 06:53:10;;;;;;;;;;;;;;;;;;5031462;28;19964;-66
2021/07/11 06:55:35;;;;;;;;;;;;;;;;;;5031269;28;19960;-66
2021/07/11 06:58:01;;;;;;;;;;;;;;;;;;5031094;28;19962;-65
2021/07/11 07:00:26;;;;;;;;;;;;;;;;;;5031140;28;19920;-65
2021/07/11 07:02:51;;;;;;;;;;;;;;;;;;5030837;28;19936;-66
2021/07/11 07:05:16;;;;;;;;;;;;;;;;;;5031153;28;19917;-66
2021/07/11 07:07:41;;;;;;;;;;;;;;;;;;5028152;28;19921;-65
2021/07/11 07:10:09;;;;;;;;;;;;;;;;;;5031174;28;19913;-67
2021/07/11 07:12:34;;;;;;;;;;;;;;;;;;5030820;28;20225;-66
2021/07/11 07:14:59;;;;;;;;;;;;;;;;;;5031085;28;19917;-66
2021/07/11 07:17:25;;;;;;;;;;;;;;;;;;5030999;28;19917;-66
2021/07/11 07:19:50;;;;;;;;;;;;;;;;;;5031185;28;20224;-65
2021/07/11 07:22:15;;;;;;;;;;;;;;;;;;5030645;28;19917;-66
2021/07/11 07:24:40;;;;;;;;;;;;;;;;;;5031075;28;20368;-64
2021/07/11 07:27:05;;;;;;;;;;;;;;;;;;5031012;28;19919;-66
2021/07/11 07:29:31;;;;;;;;;;;;;;;;;;5030795;28;19992;-65
2021/07/11 07:31:56;;;;;;;;;;;;;;;;;;5030506;28;19951;-66
2021/07/11 07:34:21;;;;;;;;;;;;;;;;;;5030756;28;20373;-65
2021/07/11 07:36:46;;;;;;;;;;;;;;;;;;5030998;28;19914;-66
2021/07/11 07:39:11;;;;;;;;;;;;;;;;;;5030838;28;19920;-67
2021/07/11 07:41:37;;;;;;;;;;;;;;;;;;5030638;28;20368;-65
2021/07/11 07:44:03;;;;;;;;;;;;;;;;;;5030743;28;19914;-66
2021/07/11 07:46:28;;;;;;;;;;;;;;;;;;5031006;28;19917;-65
2021/07/11 07:48:53;;;;;;;;;;;;;;;;;;5030559;28;20004;-66
2021/07/11 07:51:18;;;;;;;;;;;;;;;;;;5030846;28;19966;-66
2021/07/11 07:53:44;;;;;;;;;;;;;;;;;;5030466;28;19951;-65
2021/07/11 07:56:09;;;;;;;;;;;;;;;;;;5030835;28;19966;-65
2021/07/11 07:58:34;;;;;;;;;;;;;;;;;;5032988;28;19913;-66
2021/07/11 08:00:59;;;;;;;;;;;;;;;;;;5034569;28;20003;-66
2021/07/11 08:03:24;;;;;;;;;;;;;;;;;;5033584;28;20075;-65
2021/07/11 08:05:49;;;;;;;;;;;;;;;;;;5049557;28;19964;-65
2021/07/11 08:08:15;;;;;;;;;;;;;;;;;;5034326;28;19917;-64
2021/07/11 08:10:40;;;;;;;;;;;;;;;;;;5049455;28;19913;-65
2021/07/11 08:13:05;;;;;;;;;;;;;;;;;;5033939;28;19921;-65
2021/07/11 08:15:30;;;;;;;;;;;;;;;;;;5033894;28;19916;-65
2021/07/11 08:17:56;;;;;;;;;;;;;;;;;;5033648;28;19920;-65
2021/07/11 08:20:21;;;;;;;;;;;;;;;;;;5033701;28;20318;-65
2021/07/11 08:22:47;;;;;;;;;;;;;;;;;;5040572;28;19917;-66
2021/07/11 08:25:13;;;;;;;;;;;;;;;;;;5037713;28;19917;-64
2021/07/11 08:27:39;;;;;;;;;;;;;;;;;;5024980;28;19921;-65
2021/07/11 08:30:05;;;;;;;;;;;;;;;;;;5029936;28;19917;-63
2021/07/11 08:32:30;;;;;;;;;;;;;;;;;;5033129;28;19948;-67
2021/07/11 08:34:55;;;;;;;;;;;;;;;;;;5033438;28;19964;-65
2021/07/11 08:37:21;;;;;;;;;;;;;;;;;;5033795;28;19959;-65
2021/07/11 08:39:46;;;;;;;;;;;;;;;;;;5032159;28;19913;-65
2021/07/11 08:42:11;;;;;;;;;;;;;;;;;;5033206;28;19917;-65
2021/07/11 08:44:36;;;;;;;;;;;;;;;;;;5033346;28;20513;-67
2021/07/11 08:47:02;;;;;;;;;;;;;;;;;;5032931;28;19923;-67
2021/07/11 08:49:27;;;;;;;;;;;;;;;;;;5033160;28;19935;-67
2021/07/11 08:51:55;;;;;;;;;;;;;;;;;;5033102;28;20441;-66
2021/07/11 08:54:20;;;;;;;;;;;;;;;;;;5033410;28;19924;-67
2021/07/11 08:56:46;;;;;;;;;;;;;;;;;;5033073;28;19917;-67
2021/07/11 08:59:11;;;;;;;;;;;;;;;;;;5032860;28;20058;-68
2021/07/11 09:01:36;;;;;;;;;;;;;;;;;;5032143;28;19917;-68
2021/07/11 09:04:03;;;;;;;;;;;;;;;;;;5032364;28;20298;-67
2021/07/11 09:06:58;;;;;;;;;;;;;;;;;;5032866;28;19944;-68
2021/07/11 09:09:24;;;;;;;;;;;;;;;;;;5022905;28;19917;-68
2021/07/11 09:11:58;;;;;;;;;;;;;;;;;;5031209;28;19917;-69
2021/07/11 09:14:24;;;;;;;;;;;;;;;;;;5030433;28;19921;-69
2021/07/11 09:16:50;;;;;;;;;;;;;;;;;;5030465;28;19925;-68
2021/07/11 09:19:26;;;;;;;;;;;;;;;;;;5028966;28;19936;-70
2021/07/11 09:21:55;;;;;;;;;;;;;;;;;;5032159;28;20434;-70
2021/07/11 09:24:23;;;;;;;;;;;;;;;;;;5032096;28;21298;-69
2021/07/11 09:26:50;;;;;;;;;;;;;;;;;;5032183;28;19917;-69
2021/07/11 09:29:35;;;;;;;;;;;;;;;;;;5032065;28;19917;-66
2021/07/11 09:32:01;;;;;;;;;;;;;;;;;;5035025;28;19924;-68
2021/07/11 09:34:27;;;;;;;;;;;;;;;;;;5031777;28;20303;-71
2021/07/11 09:37:06;;;;;;;;;;;;;;;;;;5031691;28;19917;-70
2021/07/11 09:39:32;;;;;;;;;;;;;;;;;;5031862;28;20324;-67
2021/07/11 09:41:57;;;;;;;;;;;;;;;;;;5032140;28;19917;-69
2021/07/11 09:44:22;;;;;;;;;;;;;;;;;;5032256;28;20449;-68
2021/07/11 09:46:47;;;;;;;;;;;;;;;;;;5032246;28;19948;-68
2021/07/11 09:49:17;;;;;;;;;;;;;;;;;;5032396;28;19924;-67
2021/07/11 09:51:42;;;;;;;;;;;;;;;;;;5034983;28;20073;-68
2021/07/11 09:54:08;;;;;;;;;;;;;;;;;;5038217;28;20459;-65
2021/07/11 09:56:38;;;;;;;;;;;;;;;;;;5032250;28;19913;-67
2021/07/11 09:59:04;;;;;;;;;;;;;;;;;;5031635;28;20387;-67
2021/07/11 10:01:30;;;;;;;;;;;;;;;;;;5032063;28;20398;-69
2021/07/11 10:03:59;;;;;;;;;;;;;;;;;;5030848;28;19921;-68
2021/07/11 10:06:28;;;;;;;;;;;;;;;;;;5031942;28;19948;-67
2021/07/11 10:08:53;;;;;;;;;;;;;;;;;;5044561;28;19970;-69
2021/07/11 10:11:19;;;;;;;;;;;;;;;;;;5034358;28;19928;-69
2021/07/11 10:13:44;;;;;;;;;;;;;;;;;;5031768;28;19920;-69
2021/07/11 10:16:10;;;;;;;;;;;;;;;;;;5034964;28;19917;-71
2021/07/11 10:18:36;;;;;;;;;;;;;;;;;;5035216;28;19917;-67
2021/07/11 10:21:02;;;;;;;;;;;;;;;;;;5025777;28;20272;-70
2021/07/11 10:23:34;;;;;;;;;;;;;;;;;;5031492;28;19924;-70
2021/07/11 10:26:11;;;;;;;;;;;;;;;;;;5028629;28;19917;-70
2021/07/11 10:28:37;;;;;;;;;;;;;;;;;;5031586;28;19995;-69
2021/07/11 10:31:03;;;;;;;;;;;;;;;;;;5048880;28;20013;-68
2021/07/11 10:33:29;;;;;;;;;;;;;;;;;;5029346;28;19921;-67
2021/07/11 10:35:59;;;;;;;;;;;;;;;;;;5026947;28;19960;-68
2021/07/11 10:38:31;;;;;;;;;;;;;;;;;;5030901;28;19928;-65
2021/07/11 10:41:12;;;;;;;;;;;;;;;;;;5022445;28;19917;-65
2021/07/11 10:43:37;;;;;;;;;;;;;;;;;;5023964;28;19995;-68
2021/07/11 10:46:03;;;;;;;;;;;;;;;;;;5014164;28;20027;-65
2021/07/11 10:48:28;;;;;;;;;;;;;;;;;;5028060;28;19921;-67
2021/07/11 10:50:54;;;;;;;;;;;;;;;;;;5030571;28;19928;-71
2021/07/11 10:53:19;;;;;;;;;;;;;;;;;;5031108;28;19913;-66
2021/07/11 10:55:44;;;;;;;;;;;;;;;;;;5030968;28;19913;-68
2021/07/11 10:58:10;;;;;;;;;;;;;;;;;;5030686;28;19913;-68
2021/07/11 11:00:39;;;;;;;;;;;;;;;;;;5030868;28;20055;-72
2021/07/11 11:03:18;;;;;;;;;;;;;;;;;;5031125;28;19913;-70
2021/07/11 11:05:43;;;;;;;;;;;;;;;;;;5031195;28;19913;-69
2021/07/11 11:08:10;;;;;;;;;;;;;;;;;;5031166;28;20333;-69
2021/07/11 11:10:36;;;;;;;;;;;;;;;;;;5046439;28;19917;-69
2021/07/11 11:13:08;;;;;;;;;;;;;;;;;;5031204;28;19971;-68
2021/07/11 11:15:35;;;;;;;;;;;;;;;;;;5028129;28;20447;-69
2021/07/11 11:18:10;;;;;;;;;;;;;;;;;;5031054;28;19913;-69
2021/07/11 11:20:35;;;;;;;;;;;;;;;;;;5031303;28;20015;-69
2021/07/11 11:23:01;;;;;;;;;;;;;;;;;;5031351;28;20443;-70
2021/07/11 11:25:26;;;;;;;;;;;;;;;;;;5031064;28;19913;-70
2021/07/11 11:27:52;;;;;;;;;;;;;;;;;;5031076;28;19983;-69
2021/07/11 11:30:19;;;;;;;;;;;;;;;;;;5030948;28;20011;-69
2021/07/11 11:32:53;;;;;;;;;;;;;;;;;;5032215;28;19996;-72
2021/07/11 11:35:22;;;;;;;;;;;;;;;;;;5034804;28;20027;-69
2021/07/11 11:37:48;;;;;;;;;;;;;;;;;;5034514;28;19914;-70
2021/07/11 11:40:14;;;;;;;;;;;;;;;;;;5034718;28;19987;-70
2021/07/11 11:42:54;;;;;;;;;;;;;;;;;;5034504;28;20351;-70
2021/07/11 11:45:19;;;;;;;;;;;;;;;;;;5034676;28;19913;-70
2021/07/11 11:47:45;;;;;;;;;;;;;;;;;;5034444;28;20367;-73
2021/07/11 11:50:10;;;;;;;;;;;;;;;;;;5034698;28;20387;-68
2021/07/11 11:52:35;;;;;;;;;;;;;;;;;;5034078;28;20329;-70
2021/07/11 11:55:05;;;;;;;;;;;;;;;;;;5034504;28;19971;-69
2021/07/11 11:57:31;;;;;;;;;;;;;;;;;;5034191;28;19920;-69
2021/07/11 11:59:57;;;;;;;;;;;;;;;;;;5034359;28;20554;-69
2021/07/11 12:02:22;;;;;;;;;;;;;;;;;;5034228;28;19913;-69
2021/07/11 12:04:47;;;;;;;;;;;;;;;;;;5034262;28;19913;-72
2021/07/11 12:07:12;;;;;;;;;;;;;;;;;;5034232;28;19913;-69
2021/07/11 12:09:38;;;;;;;;;;;;;;;;;;5034063;28;19957;-70
2021/07/11 12:12:04;;;;;;;;;;;;;;;;;;5033969;28;20387;-72
2021/07/11 12:14:37;;;;;;;;;;;;;;;;;;5034147;28;19913;-70
2021/07/11 12:17:03;;;;;;;;;;;;;;;;;;5034145;28;19913;-69
2021/07/11 12:19:29;;;;;;;;;;;;;;;;;;5033725;28;19966;-69
2021/07/11 12:21:54;;;;;;;;;;;;;;;;;;5034018;28;19917;-70
2021/07/11 12:24:22;;;;;;;;;;;;;;;;;;5033932;28;19913;-69
2021/07/11 12:26:49;;;;;;;;;;;;;;;;;;5033870;28;19968;-72
2021/07/11 12:29:17;;;;;;;;;;;;;;;;;;5033903;28;20279;-69
2021/07/11 12:31:42;;;;;;;;;;;;;;;;;;5033673;28;19917;-70
2021/07/11 12:34:08;;;;;;;;;;;;;;;;;;5033111;28;20364;-69
2021/07/11 12:36:34;;;;;;;;;;;;;;;;;;5031748;28;19924;-73
2021/07/11 12:39:00;;;;;;;;;;;;;;;;;;5033588;28;20368;-70
2021/07/11 12:41:26;;;;;;;;;;;;;;;;;;5048721;28;19967;-70
2021/07/11 12:43:53;;;;;;;;;;;;;;;;;;5032958;28;19948;-69
2021/07/11 12:46:23;;;;;;;;;;;;;;;;;;5033431;28;19921;-70
2021/07/11 12:49:00;;;;;;;;;;;;;;;;;;5033185;28;19913;-70
2021/07/11 12:51:31;;;;;;;;;;;;;;;;;;5033249;28;19921;-70
2021/07/11 12:54:01;;;;;;;;;;;;;;;;;;5033714;28;19917;-70
2021/07/11 12:56:27;;;;;;;;;;;;;;;;;;5065411;28;19924;-69
2021/07/11 12:58:52;;;;;;;;;;;;;;;;;;5034837;28;20194;-70
2021/07/11 13:01:18;;;;;;;;;;;;;;;;;;5034775;28;19919;-70
2021/07/11 13:03:43;;;;;;;;;;;;;;;;;;5033936;28;19913;-69
2021/07/11 13:06:15;;;;;;;;;;;;;;;;;;5033382;28;19958;-70
2021/07/11 13:08:41;;;;;;;;;;;;;;;;;;5033087;28;19940;-69
2021/07/11 13:11:06;;;;;;;;;;;;;;;;;;5032857;28;19917;-72
2021/07/11 13:13:31;;;;;;;;;;;;;;;;;;5033075;28;19974;-69
2021/07/11 13:15:57;;;;;;;;;;;;;;;;;;5033288;28;20007;-70
2021/07/11 13:18:22;;;;;;;;;;;;;;;;;;5032915;28;19913;-70
2021/07/11 13:20:48;;;;;;;;;;;;;;;;;;5033056;28;20362;-70
2021/07/11 13:23:13;;;;;;;;;;;;;;;;;;5029771;28;20347;-70
2021/07/11 13:25:39;;;;;;;;;;;;;;;;;;5032746;28;19913;-69
2021/07/11 13:28:04;;;;;;;;;;;;;;;;;;5032661;28;19920;-69
2021/07/11 13:30:32;;;;;;;;;;;;;;;;;;5032539;28;19917;-69
2021/07/11 13:32:58;;;;;;;;;;;;;;;;;;5032520;28;19917;-69
2021/07/11 13:35:23;;;;;;;;;;;;;;;;;;5031345;28;19983;-73
2021/07/11 13:37:49;;;;;;;;;;;;;;;;;;5032309;28;20337;-69
2021/07/11 13:40:15;;;;;;;;;;;;;;;;;;5032507;28;19913;-69
2021/07/11 13:42:40;;;;;;;;;;;;;;;;;;5032254;28;19968;-69
2021/07/11 13:45:06;;;;;;;;;;;;;;;;;;5032289;28;19917;-70
2021/07/11 13:47:34;;;;;;;;;;;;;;;;;;5032234;28;19917;-70
2021/07/11 13:50:00;;;;;;;;;;;;;;;;;;5032318;28;20021;-69
2021/07/11 13:52:25;;;;;;;;;;;;;;;;;;5032404;28;19924;-69
2021/07/11 13:54:50;;;;;;;;;;;;;;;;;;5032412;28;19913;-70
2021/07/11 13:57:15;;;;;;;;;;;;;;;;;;5031924;28;19975;-71
2021/07/11 13:59:40;;;;;;;;;;;;;;;;;;5031826;28;19920;-69
2021/07/11 14:02:06;;;;;;;;;;;;;;;;;;5031966;28;19917;-69
2021/07/11 14:04:31;;;;;;;;;;;;;;;;;;5032079;28;19913;-69
2021/07/11 14:06:56;;;;;;;;;;;;;;;;;;5032007;28;19919;-69
2021/07/11 14:09:22;;;;;;;;;;;;;;;;;;5031649;28;19913;-70
2021/07/11 14:11:47;;;;;;;;;;;;;;;;;;5031817;28;19924;-69
2021/07/11 14:14:12;;;;;;;;;;;;;;;;;;5031780;28;19913;-69
2021/07/11 14:16:37;;;;;;;;;;;;;;;;;;5032091;28;19913;-69
2021/07/11 14:19:03;;;;;;;;;;;;;;;;;;5031607;28;19996;-70
2021/07/11 14:21:28;;;;;;;;;;;;;;;;;;5030256;28;19917;-69
2021/07/11 14:23:54;;;;;;;;;;;;;;;;;;5029565;28;20379;-67
2021/07/11 14:26:19;;;;;;;;;;;;;;;;;;5030956;28;19920;-67
2021/07/11 14:28:45;;;;;;;;;;;;;;;;;;5030473;28;19917;-68
2021/07/11 14:31:10;;;;;;;;;;;;;;;;;;5030689;28;20015;-69
2021/07/11 14:33:35;;;;;;;;;;;;;;;;;;5031473;28;19947;-67
2021/07/11 14:36:01;;;;;;;;;;;;;;;;;;5031145;28;20455;-68
2021/07/11 14:38:27;;;;;;;;;;;;;;;;;;5029289;28;19921;-71
2021/07/11 14:40:53;;;;;;;;;;;;;;;;;;5029800;28;19936;-67
2021/07/11 14:43:18;;;;;;;;;;;;;;;;;;5033663;28;20295;-67
2021/07/11 14:45:43;;;;;;;;;;;;;;;;;;5031391;28;20375;-67
2021/07/11 14:48:08;;;;;;;;;;;;;;;;;;5062930;28;19919;-67
2021/07/11 14:50:33;;;;;;;;;;;;;;;;;;5031505;28;19917;-67
2021/07/11 14:52:59;;;;;;;;;;;;;;;;;;5030426;28;19928;-68
2021/07/11 14:55:24;;;;;;;;;;;;;;;;;;5031385;28;20310;-67
2021/07/11 14:57:49;;;;;;;;;;;;;;;;;;5030271;28;19913;-68
2021/07/11 15:00:15;;;;;;;;;;;;;;;;;;5030231;28;19925;-67
2021/07/11 15:02:40;;;;;;;;;;;;;;;;;;5029932;28;19949;-67
2021/07/11 15:05:06;;;;;;;;;;;;;;;;;;5031569;28;19956;-68
2021/07/11 15:07:31;;;;;;;;;;;;;;;;;;5031571;28;20429;-68
2021/07/11 15:09:56;;;;;;;;;;;;;;;;;;5035292;28;19920;-67
2021/07/11 15:12:22;;;;;;;;;;;;;;;;;;5034746;28;19930;-67
2021/07/11 15:14:48;;;;;;;;;;;;;;;;;;5035122;28;19920;-68
2021/07/11 15:17:14;;;;;;;;;;;;;;;;;;5035186;28;19917;-67
2021/07/11 15:19:39;;;;;;;;;;;;;;;;;;5031898;28;19925;-68
2021/07/11 15:22:04;;;;;;;;;;;;;;;;;;5034921;28;20026;-71
2021/07/11 15:24:30;;;;;;;;;;;;;;;;;;5033619;28;19917;-73
2021/07/11 15:26:55;;;;;;;;;;;;;;;;;;5028483;28;19917;-72
2021/07/11 15:29:20;;;;;;;;;;;;;;;;;;5034831;28;19913;-73
2021/07/11 15:31:46;;;;;;;;;;;;;;;;;;5034234;28;20441;-74
2021/07/11 15:34:12;;;;;;;;;;;;;;;;;;5035114;28;19979;-75
2021/07/11 15:36:37;;;;;;;;;;;;;;;;;;5040504;28;19928;-71
2021/07/11 15:39:04;;;;;;;;;;;;;;;;;;5035906;28;20386;-71
2021/07/11 15:41:29;;;;;;;;;;;;;;;;;;5034111;28;19917;-72
2021/07/11 15:43:54;;;;;;;;;;;;;;;;;;5034600;28;19924;-72
2021/07/11 15:46:22;;;;;;;;;;;;;;;;;;5034744;28;19913;-74
2021/07/11 15:48:47;;;;;;;;;;;;;;;;;;5032386;28;20371;-73
2021/07/11 15:51:12;;;;;;;;;;;;;;;;;;5033664;28;20020;-75
2021/07/11 15:53:38;;;;;;;;;;;;;;;;;;5033346;28;19920;-71
2021/07/11 15:56:03;;;;;;;;;;;;;;;;;;5034571;28;19924;-72
2021/07/11 15:58:28;;;;;;;;;;;;;;;;;;5033906;28;19920;-75
2021/07/11 16:00:53;;;;;;;;;;;;;;;;;;5034022;28;20380;-68
2021/07/11 16:03:19;;;;;;;;;;;;;;;;;;5039613;28;20003;-72
2021/07/11 16:05:45;;;;;;;;;;;;;;;;;;5039839;28;20383;-73
2021/07/11 16:08:11;;;;;;;;;;;;;;;;;;5034112;28;20328;-72
2021/07/11 16:10:36;;;;;;;;;;;;;;;;;;5034523;28;20003;-73
2021/07/11 16:13:03;;;;;;;;;;;;;;;;;;5034150;28;19918;-72
2021/07/11 16:15:29;;;;;;;;;;;;;;;;;;5032363;28;19956;-73
2021/07/11 16:17:54;;;;;;;;;;;;;;;;;;5034164;28;19921;-73
2021/07/11 16:20:20;;;;;;;;;;;;;;;;;;5034465;28;19913;-71
2021/07/11 16:22:45;;;;;;;;;;;;;;;;;;5034209;28;19920;-73
2021/07/11 16:25:12;;;;;;;;;;;;;;;;;;5034374;28;20367;-73
2021/07/11 16:27:37;;;;;;;;;;;;;;;;;;5018387;28;19917;-72
2021/07/11 16:30:04;;;;;;;;;;;;;;;;;;5014454;28;19918;-72
2021/07/11 16:32:29;;;;;;;;;;;;;;;;;;5024564;28;19921;-72
2021/07/11 16:34:54;;;;;;;;;;;;;;;;;;5034144;28;19966;-73
2021/07/11 16:37:20;;;;;;;;;;;;;;;;;;5034322;28;19947;-70
2021/07/11 16:39:45;;;;;;;;;;;;;;;;;;5045992;28;19917;-72